sensor_id;sensor_type;location;lat;lon;timestamp;pressure;altitude;pressure_sealevel;temperature;humidity
37634;BME280;32048;49.902;22.508;2023-04-27T00:01:40;98727.25;;;3.73;89.14
37634;BME280;32048;49.902;22.508;2023-04-27T00:04:07;98724.56;;;3.77;88.77
37634;BME280;32048;49.902;22.508;2023-04-27T00:06:35;98725.38;;;3.79;88.08
37634;BME280;32048;49.902;22.508;2023-04-27T00:09:01;98727.00;;;3.84;87.71
37634;BME280;32048;49.902;22.508;2023-04-27T00:11:29;98730.44;;;3.86;86.77
37634;BME280;32048;49.902;22.508;2023-04-27T00:13:56;98728.66;;;3.88;86.40
37634;BME280;32048;49.902;22.508;2023-04-27T00:16:23;98729.38;;;3.93;85.66
37634;BME280;32048;49.902;22.508;2023-04-27T00:18:51;98733.66;;;3.96;85.07
37634;BME280;32048;49.902;22.508;2023-04-27T00:21:20;98730.09;;;3.99;85.16
37634;BME280;32048;49.902;22.508;2023-04-27T00:23:47;98731.75;;;4.03;84.86
37634;BME280;32048;49.902;22.508;2023-04-27T00:26:15;98729.94;;;4.05;84.39
37634;BME280;32048;49.902;22.508;2023-04-27T00:28:41;98740.31;;;4.08;84.00
37634;BME280;32048;49.902;22.508;2023-04-27T00:31:09;98734.22;;;4.07;83.73
37634;BME280;32048;49.902;22.508;2023-04-27T00:33:36;98731.66;;;4.06;83.72
37634;BME280;32048;49.902;22.508;2023-04-27T00:36:03;98734.22;;;4.07;82.84
37634;BME280;32048;49.902;22.508;2023-04-27T00:38:30;98727.19;;;4.11;82.76
37634;BME280;32048;49.902;22.508;2023-04-27T00:41:05;98725.44;;;4.10;82.27
37634;BME280;32048;49.902;22.508;2023-04-27T00:43:39;98734.09;;;4.13;82.24
37634;BME280;32048;49.902;22.508;2023-04-27T00:46:07;98729.75;;;4.12;82.79
37634;BME280;32048;49.902;22.508;2023-04-27T00:48:34;98726.25;;;4.13;82.12
37634;BME280;32048;49.902;22.508;2023-04-27T00:51:02;98730.56;;;4.14;82.47
37634;BME280;32048;49.902;22.508;2023-04-27T00:53:30;98725.34;;;4.14;83.02
37634;BME280;32048;49.902;22.508;2023-04-27T00:55:57;98734.09;;;4.13;83.10
37634;BME280;32048;49.902;22.508;2023-04-27T00:58:24;98729.84;;;4.08;83.32
37634;BME280;32048;49.902;22.508;2023-04-27T01:00:52;98727.19;;;4.11;83.42
37634;BME280;32048;49.902;22.508;2023-04-27T01:03:19;98725.44;;;4.11;83.12
37634;BME280;32048;49.902;22.508;2023-04-27T01:05:47;98732.41;;;4.11;83.02
37634;BME280;32048;49.902;22.508;2023-04-27T01:08:14;98728.94;;;4.10;83.22
37634;BME280;32048;49.902;22.508;2023-04-27T01:10:41;98730.69;;;4.10;83.78
37634;BME280;32048;49.902;22.508;2023-04-27T01:13:09;98737.63;;;4.11;83.20
37634;BME280;32048;49.902;22.508;2023-04-27T01:15:36;98737.56;;;4.12;83.29
37634;BME280;32048;49.902;22.508;2023-04-27T01:18:03;98735.84;;;4.13;83.31
37634;BME280;32048;49.902;22.508;2023-04-27T01:20:31;98738.47;;;4.13;83.60
37634;BME280;32048;49.902;22.508;2023-04-27T01:22:58;98737.63;;;4.11;83.49
37634;BME280;32048;49.902;22.508;2023-04-27T01:25:25;98730.66;;;4.11;84.25
37634;BME280;32048;49.902;22.508;2023-04-27T01:27:52;98735.91;;;4.10;84.71
37634;BME280;32048;49.902;22.508;2023-04-27T01:30:20;98737.69;;;4.08;85.63
37634;BME280;32048;49.902;22.508;2023-04-27T01:32:50;98737.78;;;4.05;85.97
37634;BME280;32048;49.902;22.508;2023-04-27T01:35:17;98742.16;;;4.04;86.27
37634;BME280;32048;49.902;22.508;2023-04-27T01:37:44;98737.81;;;4.03;86.49
37634;BME280;32048;49.902;22.508;2023-04-27T01:40:12;98737.88;;;4.02;86.72
37634;BME280;32048;49.902;22.508;2023-04-27T01:42:39;98733.63;;;3.98;86.51
37634;BME280;32048;49.902;22.508;2023-04-27T01:45:07;98735.38;;;3.97;86.19
37634;BME280;32048;49.902;22.508;2023-04-27T01:47:34;98734.47;;;3.98;86.30
37634;BME280;32048;49.902;22.508;2023-04-27T01:50:02;98738.00;;;3.97;85.79
37634;BME280;32048;49.902;22.508;2023-04-27T01:52:29;98738.88;;;3.96;85.42
37634;BME280;32048;49.902;22.508;2023-04-27T01:54:56;98738.84;;;3.98;84.95
37634;BME280;32048;49.902;22.508;2023-04-27T01:57:23;98742.22;;;4.01;84.87
37634;BME280;32048;49.902;22.508;2023-04-27T01:59:51;98746.56;;;4.02;84.75
37634;BME280;32048;49.902;22.508;2023-04-27T02:02:18;98743.03;;;4.03;84.60
37634;BME280;32048;49.902;22.508;2023-04-27T02:04:45;98743.97;;;4.02;84.47
37634;BME280;32048;49.902;22.508;2023-04-27T02:07:12;98737.81;;;4.03;84.77
37634;BME280;32048;49.902;22.508;2023-04-27T02:09:39;98737.88;;;4.02;84.91
37634;BME280;32048;49.902;22.508;2023-04-27T02:12:06;98736.97;;;4.03;84.35
37634;BME280;32048;49.902;22.508;2023-04-27T02:14:33;98738.69;;;4.04;84.06
37634;BME280;32048;49.902;22.508;2023-04-27T02:17:00;98744.78;;;4.04;84.03
37634;BME280;32048;49.902;22.508;2023-04-27T02:19:27;98743.88;;;4.05;84.38
37634;BME280;32048;49.902;22.508;2023-04-27T02:21:54;98744.72;;;4.06;84.16
37634;BME280;32048;49.902;22.508;2023-04-27T02:24:22;98741.25;;;4.05;84.04
37634;BME280;32048;49.902;22.508;2023-04-27T02:26:49;98746.41;;;4.08;83.82
37634;BME280;32048;49.902;22.508;2023-04-27T02:29:16;98744.63;;;4.10;84.05
37634;BME280;32048;49.902;22.508;2023-04-27T02:31:44;98751.66;;;4.08;84.23
37634;BME280;32048;49.902;22.508;2023-04-27T02:34:12;98749.09;;;4.05;84.27
37634;BME280;32048;49.902;22.508;2023-04-27T02:36:39;98752.53;;;4.07;83.98
37634;BME280;32048;49.902;22.508;2023-04-27T02:39:06;98755.22;;;4.04;84.14
37634;BME280;32048;49.902;22.508;2023-04-27T02:41:33;98757.75;;;4.07;84.00
37634;BME280;32048;49.902;22.508;2023-04-27T02:44:00;98753.44;;;4.06;84.03
37634;BME280;32048;49.902;22.508;2023-04-27T02:46:27;98758.59;;;4.08;83.84
37634;BME280;32048;49.902;22.508;2023-04-27T02:48:54;98759.44;;;4.10;83.54
37634;BME280;32048;49.902;22.508;2023-04-27T02:51:22;98766.31;;;4.12;83.54
37634;BME280;32048;49.902;22.508;2023-04-27T02:53:51;98754.16;;;4.11;83.77
37634;BME280;32048;49.902;22.508;2023-04-27T02:56:18;98756.88;;;4.08;84.12
37634;BME280;32048;49.902;22.508;2023-04-27T02:58:46;98757.75;;;4.07;84.01
37634;BME280;32048;49.902;22.508;2023-04-27T03:01:14;98768.16;;;4.10;83.84
37634;BME280;32048;49.902;22.508;2023-04-27T03:03:46;98770.81;;;4.07;84.61
37634;BME280;32048;49.902;22.508;2023-04-27T03:06:14;98773.44;;;4.07;85.11
37634;BME280;32048;49.902;22.508;2023-04-27T03:08:41;98775.19;;;4.07;85.49
37634;BME280;32048;49.902;22.508;2023-04-27T03:11:08;98769.16;;;4.05;85.58
37634;BME280;32048;49.902;22.508;2023-04-27T03:13:35;98769.16;;;4.05;85.78
37634;BME280;32048;49.902;22.508;2023-04-27T03:16:08;98773.47;;;4.06;84.97
37634;BME280;32048;49.902;22.508;2023-04-27T03:18:37;98768.22;;;4.06;84.97
37634;BME280;32048;49.902;22.508;2023-04-27T03:23:32;98780.28;;;4.13;84.54
37634;BME280;32048;49.902;22.508;2023-04-27T03:26:11;98776.88;;;4.09;85.24
37634;BME280;32048;49.902;22.508;2023-04-27T03:28:38;98782.91;;;4.11;85.63
37634;BME280;32048;49.902;22.508;2023-04-27T03:31:07;98796.84;;;4.12;85.47
37634;BME280;32048;49.902;22.508;2023-04-27T03:33:34;98782.19;;;4.06;86.29
37634;BME280;32048;49.902;22.508;2023-04-27T03:36:05;98784.72;;;4.08;85.91
37634;BME280;32048;49.902;22.508;2023-04-27T03:38:33;98792.53;;;4.09;85.96
37634;BME280;32048;49.902;22.508;2023-04-27T03:41:00;98789.00;;;4.12;85.94
37634;BME280;32048;49.902;22.508;2023-04-27T03:43:27;98796.81;;;4.13;86.07
37634;BME280;32048;49.902;22.508;2023-04-27T03:45:54;98789.84;;;4.12;85.66
37634;BME280;32048;49.902;22.508;2023-04-27T03:48:22;98795.88;;;4.16;85.53
37634;BME280;32048;49.902;22.508;2023-04-27T03:50:49;98799.38;;;4.15;85.56
37634;BME280;32048;49.902;22.508;2023-04-27T03:53:16;98805.34;;;4.20;85.75
37634;BME280;32048;49.902;22.508;2023-04-27T03:55:43;98800.13;;;4.20;85.73
37634;BME280;32048;49.902;22.508;2023-04-27T03:58:11;98803.59;;;4.21;85.68
37634;BME280;32048;49.902;22.508;2023-04-27T04:00:38;98808.00;;;4.19;86.20
37634;BME280;32048;49.902;22.508;2023-04-27T04:03:06;98810.53;;;4.22;85.32
37634;BME280;32048;49.902;22.508;2023-04-27T04:05:34;98813.91;;;4.25;85.08
37634;BME280;32048;49.902;22.508;2023-04-27T04:08:02;98814.72;;;4.29;85.20
37634;BME280;32048;49.902;22.508;2023-04-27T04:10:29;98825.09;;;4.32;85.44
37634;BME280;32048;49.902;22.508;2023-04-27T04:12:56;98818.03;;;4.35;85.52
37634;BME280;32048;49.902;22.508;2023-04-27T04:15:23;98819.81;;;4.33;85.66
37634;BME280;32048;49.902;22.508;2023-04-27T04:17:50;98827.53;;;4.38;84.97
37634;BME280;32048;49.902;22.508;2023-04-27T04:20:17;98834.41;;;4.42;84.86
37634;BME280;32048;49.902;22.508;2023-04-27T04:22:44;98833.47;;;4.45;84.81
37634;BME280;32048;49.902;22.508;2023-04-27T04:25:11;98831.81;;;4.42;84.21
37634;BME280;32048;49.902;22.508;2023-04-27T04:27:39;98829.78;;;4.52;83.95
37634;BME280;32048;49.902;22.508;2023-04-27T04:30:06;98830.53;;;4.57;84.18
37634;BME280;32048;49.902;22.508;2023-04-27T04:32:34;98832.09;;;4.64;84.96
37634;BME280;32048;49.902;22.508;2023-04-27T04:35:04;98833.69;;;4.70;84.95
37634;BME280;32048;49.902;22.508;2023-04-27T04:37:34;98837.00;;;4.76;84.63
37634;BME280;32048;49.902;22.508;2023-04-27T04:40:06;98837.66;;;4.85;84.00
37634;BME280;32048;49.902;22.508;2023-04-27T04:42:37;98846.19;;;4.91;83.42
37634;BME280;32048;49.902;22.508;2023-04-27T04:45:04;98846.91;;;4.96;81.87
37634;BME280;32048;49.902;22.508;2023-04-27T04:47:33;98854.53;;;5.04;82.35
37634;BME280;32048;49.902;22.508;2023-04-27T04:50:00;98846.41;;;5.13;82.53
37634;BME280;32048;49.902;22.508;2023-04-27T04:52:28;98850.59;;;5.20;82.29
37634;BME280;32048;49.902;22.508;2023-04-27T04:54:55;98856.72;;;5.19;79.87
37634;BME280;32048;49.902;22.508;2023-04-27T04:57:22;98863.63;;;5.22;79.54
37634;BME280;32048;49.902;22.508;2023-04-27T04:59:49;98866.22;;;5.24;80.57
37634;BME280;32048;49.902;22.508;2023-04-27T05:02:16;98869.53;;;5.29;80.94
37634;BME280;32048;49.902;22.508;2023-04-27T05:04:43;98875.47;;;5.35;81.25
37634;BME280;32048;49.902;22.508;2023-04-27T05:07:12;98877.75;;;5.48;82.19
37634;BME280;32048;49.902;22.508;2023-04-27T05:09:40;98872.84;;;5.95;79.62
37634;BME280;32048;49.902;22.508;2023-04-27T05:12:08;98878.34;;;6.67;77.61
37634;BME280;32048;49.902;22.508;2023-04-27T05:14:34;98875.06;;;7.36;73.74
37634;BME280;32048;49.902;22.508;2023-04-27T05:17:02;98882.56;;;8.14;69.74
37634;BME280;32048;49.902;22.508;2023-04-27T05:19:29;98868.50;;;8.99;70.38
37634;BME280;32048;49.902;22.508;2023-04-27T05:21:57;98875.53;;;9.77;60.87
37634;BME280;32048;49.902;22.508;2023-04-27T05:24:25;98881.25;;;10.23;53.41
37634;BME280;32048;49.902;22.508;2023-04-27T05:26:52;98889.97;;;10.79;53.59
37634;BME280;32048;49.902;22.508;2023-04-27T05:29:20;98886.41;;;11.31;51.97
37634;BME280;32048;49.902;22.508;2023-04-27T05:31:47;98884.22;;;11.88;50.82
37634;BME280;32048;49.902;22.508;2023-04-27T05:34:15;98878.91;;;12.36;48.34
37634;BME280;32048;49.902;22.508;2023-04-27T05:36:42;98886.94;;;12.64;46.55
37634;BME280;32048;49.902;22.508;2023-04-27T05:39:09;98881.66;;;12.95;48.49
37634;BME280;32048;49.902;22.508;2023-04-27T05:41:36;98882.75;;;13.49;46.27
37634;BME280;32048;49.902;22.508;2023-04-27T05:44:03;98892.69;;;13.89;42.48
37634;BME280;32048;49.902;22.508;2023-04-27T05:46:31;98891.38;;;14.23;43.92
37634;BME280;32048;49.902;22.508;2023-04-27T05:48:58;98897.53;;;14.65;40.90
37634;BME280;32048;49.902;22.508;2023-04-27T05:51:25;98906.09;;;15.09;42.23
37634;BME280;32048;49.902;22.508;2023-04-27T05:53:52;98895.59;;;15.71;39.80
37634;BME280;32048;49.902;22.508;2023-04-27T05:56:21;98904.56;;;16.07;39.44
37634;BME280;32048;49.902;22.508;2023-04-27T05:58:48;98897.59;;;16.30;38.28
37634;BME280;32048;49.902;22.508;2023-04-27T06:01:15;98897.41;;;16.45;38.03
37634;BME280;32048;49.902;22.508;2023-04-27T06:03:42;98902.75;;;16.45;38.23
37634;BME280;32048;49.902;22.508;2023-04-27T06:06:10;98907.19;;;16.57;38.27
37634;BME280;32048;49.902;22.508;2023-04-27T06:08:37;98905.91;;;16.98;37.50
37634;BME280;32048;49.902;22.508;2023-04-27T06:11:05;98914.38;;;17.38;37.28
37634;BME280;32048;49.902;22.508;2023-04-27T06:13:32;98915.03;;;17.64;35.47
37634;BME280;32048;49.902;22.508;2023-04-27T06:16:00;98919.28;;;17.56;34.66
37634;BME280;32048;49.902;22.508;2023-04-27T06:18:27;98915.72;;;17.66;34.52
37634;BME280;32048;49.902;22.508;2023-04-27T06:20:58;98912.69;;;17.60;35.58
37634;BME280;32048;49.902;22.508;2023-04-27T06:23:27;98917.44;;;17.56;35.04
37634;BME280;32048;49.902;22.508;2023-04-27T06:25:55;98920.13;;;17.67;34.52
37634;BME280;32048;49.902;22.508;2023-04-27T06:28:22;98912.22;;;17.77;34.98
37634;BME280;32048;49.902;22.508;2023-04-27T06:30:49;98915.28;;;17.95;35.41
37634;BME280;32048;49.902;22.508;2023-04-27T06:33:16;98916.78;;;18.43;33.97
37634;BME280;32048;49.902;22.508;2023-04-27T06:35:44;98919.34;;;18.88;33.15
37634;BME280;32048;49.902;22.508;2023-04-27T06:38:13;98915.94;;;19.28;32.51
37634;BME280;32048;49.902;22.508;2023-04-27T06:40:40;98918.72;;;19.68;31.85
37634;BME280;32048;49.902;22.508;2023-04-27T06:43:07;98918.34;;;20.04;31.62
37634;BME280;32048;49.902;22.508;2023-04-27T06:45:34;98914.31;;;20.29;30.26
37634;BME280;32048;49.902;22.508;2023-04-27T06:48:01;98914.66;;;20.55;30.60
37634;BME280;32048;49.902;22.508;2023-04-27T06:50:29;98916.53;;;20.93;29.39
37634;BME280;32048;49.902;22.508;2023-04-27T06:52:56;98911.97;;;21.33;28.97
37634;BME280;32048;49.902;22.508;2023-04-27T06:55:23;98917.22;;;21.44;28.67
37634;BME280;32048;49.902;22.508;2023-04-27T06:57:50;98909.69;;;21.38;29.73
37634;BME280;32048;49.902;22.508;2023-04-27T07:00:18;98921.69;;;21.63;29.33
37634;BME280;32048;49.902;22.508;2023-04-27T07:02:45;98921.88;;;21.89;29.40
37634;BME280;32048;49.902;22.508;2023-04-27T07:05:13;98919.66;;;22.22;27.50
37634;BME280;32048;49.902;22.508;2023-04-27T07:07:40;98936.31;;;22.53;27.67
37634;BME280;32048;49.902;22.508;2023-04-27T07:10:07;98929.09;;;22.90;27.77
37634;BME280;32048;49.902;22.508;2023-04-27T07:12:35;98932.78;;;23.24;27.17
37634;BME280;32048;49.902;22.508;2023-04-27T07:15:04;98924.22;;;22.93;26.82
37634;BME280;32048;49.902;22.508;2023-04-27T07:17:32;98934.53;;;22.80;25.92
37634;BME280;32048;49.902;22.508;2023-04-27T07:20:03;98929.31;;;22.60;26.48
37634;BME280;32048;49.902;22.508;2023-04-27T07:22:32;98926.50;;;22.34;27.62
37634;BME280;32048;49.902;22.508;2023-04-27T07:24:59;98931.44;;;22.57;27.63
37634;BME280;32048;49.902;22.508;2023-04-27T07:27:26;98927.72;;;22.86;26.89
37634;BME280;32048;49.902;22.508;2023-04-27T07:29:53;98931.63;;;23.09;26.01
37634;BME280;32048;49.902;22.508;2023-04-27T07:32:20;98930.91;;;23.43;25.97
37634;BME280;32048;49.902;22.508;2023-04-27T07:34:49;98931.88;;;23.86;24.66
37634;BME280;32048;49.902;22.508;2023-04-27T07:37:20;98931.66;;;24.14;25.29
37634;BME280;32048;49.902;22.508;2023-04-27T07:39:49;98935.28;;;24.39;24.44
37634;BME280;32048;49.902;22.508;2023-04-27T07:42:18;98935.06;;;24.58;25.09
37634;BME280;32048;49.902;22.508;2023-04-27T07:44:45;98924.47;;;24.73;24.02
37634;BME280;32048;49.902;22.508;2023-04-27T07:47:13;98927.00;;;24.99;23.57
37634;BME280;32048;49.902;22.508;2023-04-27T07:49:40;98934.28;;;24.99;23.36
37634;BME280;32048;49.902;22.508;2023-04-27T07:52:07;98920.28;;;25.28;23.90
37634;BME280;32048;49.902;22.508;2023-04-27T07:54:34;98918.41;;;25.61;22.94
37634;BME280;32048;49.902;22.508;2023-04-27T07:57:06;98922.97;;;25.61;21.62
37634;BME280;32048;49.902;22.508;2023-04-27T07:59:34;98917.91;;;25.49;22.49
37634;BME280;32048;49.902;22.508;2023-04-27T08:02:00;98920.56;;;25.74;22.05
37634;BME280;32048;49.902;22.508;2023-04-27T08:04:45;98919.53;;;25.83;20.93
37634;BME280;32048;49.902;22.508;2023-04-27T08:07:15;98916.69;;;24.62;21.69
37634;BME280;32048;49.902;22.508;2023-04-27T08:09:43;98922.94;;;22.79;23.50
37634;BME280;32048;49.902;22.508;2023-04-27T08:12:10;98924.88;;;20.71;25.45
37634;BME280;32048;49.902;22.508;2023-04-27T08:14:37;98927.66;;;19.27;27.87
37634;BME280;32048;49.902;22.508;2023-04-27T08:17:04;98933.75;;;18.10;30.44
37634;BME280;32048;49.902;22.508;2023-04-27T08:19:32;98939.31;;;17.15;32.47
37634;BME280;32048;49.902;22.508;2023-04-27T08:21:59;98942.44;;;16.36;33.53
37634;BME280;32048;49.902;22.508;2023-04-27T08:24:27;98936.41;;;15.72;33.99
37634;BME280;32048;49.902;22.508;2023-04-27T08:26:53;98939.53;;;15.13;34.64
37634;BME280;32048;49.902;22.508;2023-04-27T08:29:21;98946.47;;;14.75;35.81
37634;BME280;32048;49.902;22.508;2023-04-27T08:31:56;98949.38;;;14.44;37.45
37634;BME280;32048;49.902;22.508;2023-04-27T08:34:25;98941.16;;;13.92;37.76
37634;BME280;32048;49.902;22.508;2023-04-27T08:36:51;98948.53;;;13.44;38.76
37634;BME280;32048;49.902;22.508;2023-04-27T08:39:20;98953.84;;;13.14;37.86
37634;BME280;32048;49.902;22.508;2023-04-27T08:41:47;98949.81;;;13.23;37.82
37634;BME280;32048;49.902;22.508;2023-04-27T08:44:14;98944.81;;;13.02;38.28
37634;BME280;32048;49.902;22.508;2023-04-27T08:46:41;98950.38;;;12.67;38.46
37634;BME280;32048;49.902;22.508;2023-04-27T08:49:09;98945.25;;;12.48;39.75
37634;BME280;32048;49.902;22.508;2023-04-27T08:51:36;98941.19;;;12.43;40.00
37634;BME280;32048;49.902;22.508;2023-04-27T08:54:03;98949.38;;;12.22;41.16
37634;BME280;32048;49.902;22.508;2023-04-27T08:56:30;98953.97;;;12.03;39.85
37634;BME280;32048;49.902;22.508;2023-04-27T08:58:57;98946.81;;;11.89;40.66
37634;BME280;32048;49.902;22.508;2023-04-27T09:01:26;98950.00;;;11.78;41.39
37634;BME280;32048;49.902;22.508;2023-04-27T09:03:57;98946.31;;;11.81;42.33
37634;BME280;32048;49.902;22.508;2023-04-27T09:06:33;98943.16;;;11.74;42.30
37634;BME280;32048;49.902;22.508;2023-04-27T09:09:02;98940.09;;;11.82;42.56
37634;BME280;32048;49.902;22.508;2023-04-27T09:11:33;98941.50;;;11.89;42.00
37634;BME280;32048;49.902;22.508;2023-04-27T09:14:03;98938.88;;;12.05;42.26
37634;BME280;32048;49.902;22.508;2023-04-27T09:16:41;98940.75;;;12.19;42.81
37634;BME280;32048;49.902;22.508;2023-04-27T09:19:09;98941.53;;;12.21;42.96
37634;BME280;32048;49.902;22.508;2023-04-27T09:21:36;98934.94;;;12.28;42.85
37634;BME280;32048;49.902;22.508;2023-04-27T09:24:10;98937.59;;;12.28;41.80
37634;BME280;32048;49.902;22.508;2023-04-27T09:26:38;98931.00;;;12.35;41.39
37634;BME280;32048;49.902;22.508;2023-04-27T09:29:07;98929.50;;;12.15;41.23
37634;BME280;32048;49.902;22.508;2023-04-27T09:31:34;98939.47;;;12.26;41.67
37634;BME280;32048;49.902;22.508;2023-04-27T09:34:02;98935.63;;;12.47;42.07
37634;BME280;32048;49.902;22.508;2023-04-27T09:36:30;98936.53;;;12.62;41.84
37634;BME280;32048;49.902;22.508;2023-04-27T09:39:01;98934.44;;;12.83;41.04
37634;BME280;32048;49.902;22.508;2023-04-27T09:41:31;98931.53;;;12.88;40.03
37634;BME280;32048;49.902;22.508;2023-04-27T09:43:59;98940.25;;;12.90;42.02
37634;BME280;32048;49.902;22.508;2023-04-27T09:46:28;98938.69;;;12.86;40.94
37634;BME280;32048;49.902;22.508;2023-04-27T09:48:56;98940.63;;;12.68;40.26
37634;BME280;32048;49.902;22.508;2023-04-27T09:51:23;98933.75;;;12.34;40.59
37634;BME280;32048;49.902;22.508;2023-04-27T09:53:52;98930.16;;;12.03;43.30
37634;BME280;32048;49.902;22.508;2023-04-27T10:01:58;98939.03;;;11.53;43.81
37634;BME280;32048;49.902;22.508;2023-04-27T10:07:38;98937.16;;;13.85;39.92
37634;BME280;32048;49.902;22.508;2023-04-27T10:10:15;98925.97;;;14.36;37.63
37634;BME280;32048;49.902;22.508;2023-04-27T10:13:01;98937.41;;;14.51;36.28
37634;BME280;32048;49.902;22.508;2023-04-27T10:15:28;98939.19;;;14.50;35.51
37634;BME280;32048;49.902;22.508;2023-04-27T10:18:03;98932.91;;;14.66;37.04
37634;BME280;32048;49.902;22.508;2023-04-27T10:20:34;98930.94;;;14.69;35.27
37634;BME280;32048;49.902;22.508;2023-04-27T10:23:01;98924.53;;;14.45;35.12
37634;BME280;32048;49.902;22.508;2023-04-27T10:25:39;98918.66;;;14.40;35.79
37634;BME280;32048;49.902;22.508;2023-04-27T10:28:06;98917.50;;;14.58;35.33
37634;BME280;32048;49.902;22.508;2023-04-27T10:30:36;98919.13;;;14.73;34.80
37634;BME280;32048;49.902;22.508;2023-04-27T10:33:05;98917.53;;;14.71;34.82
37634;BME280;32048;49.902;22.508;2023-04-27T10:35:39;98916.47;;;14.46;34.94
37634;BME280;32048;49.902;22.508;2023-04-27T10:40:36;98920.44;;;14.81;35.11
37634;BME280;32048;49.902;22.508;2023-04-27T10:43:12;98912.50;;;15.45;33.79
37634;BME280;32048;49.902;22.508;2023-04-27T10:45:40;98911.44;;;16.35;33.23
37634;BME280;32048;49.902;22.508;2023-04-27T10:48:10;98905.69;;;17.01;30.47
37634;BME280;32048;49.902;22.508;2023-04-27T10:50:38;98903.25;;;17.44;30.12
37634;BME280;32048;49.902;22.508;2023-04-27T10:53:06;98912.22;;;17.77;29.93
37634;BME280;32048;49.902;22.508;2023-04-27T10:55:34;98915.88;;;17.54;30.70
37634;BME280;32048;49.902;22.508;2023-04-27T10:58:02;98924.53;;;16.62;32.19
37634;BME280;32048;49.902;22.508;2023-04-27T11:00:32;98931.69;;;15.37;34.33
37634;BME280;32048;49.902;22.508;2023-04-27T11:03:18;98932.28;;;14.62;34.73
37634;BME280;32048;49.902;22.508;2023-04-27T11:05:50;98931.97;;;14.25;35.32
37634;BME280;32048;49.902;22.508;2023-04-27T11:08:24;98929.53;;;14.08;37.03
37634;BME280;32048;49.902;22.508;2023-04-27T11:10:51;98930.16;;;13.84;35.63
37634;BME280;32048;49.902;22.508;2023-04-27T11:13:21;98940.59;;;13.59;35.58
37634;BME280;32048;49.902;22.508;2023-04-27T11:15:51;98936.78;;;13.48;37.23
37634;BME280;32048;49.902;22.508;2023-04-27T11:18:21;98932.41;;;13.47;37.92
37634;BME280;32048;49.902;22.508;2023-04-27T11:20:54;98938.59;;;13.62;37.27
37634;BME280;32048;49.902;22.508;2023-04-27T11:23:32;98936.22;;;13.86;38.28
37634;BME280;32048;49.902;22.508;2023-04-27T11:28:43;98936.94;;;14.03;36.00
37634;BME280;32048;49.902;22.508;2023-04-27T11:31:11;98941.59;;;14.13;36.73
37634;BME280;32048;49.902;22.508;2023-04-27T11:33:46;98935.81;;;14.48;35.67
37634;BME280;32048;49.902;22.508;2023-04-27T11:36:18;98925.84;;;15.32;34.20
37634;BME280;32048;49.902;22.508;2023-04-27T11:38:45;98930.06;;;15.98;32.60
37634;BME280;32048;49.902;22.508;2023-04-27T11:41:12;98924.47;;;16.51;32.40
37634;BME280;32048;49.902;22.508;2023-04-27T11:43:43;98932.72;;;16.96;31.11
37634;BME280;32048;49.902;22.508;2023-04-27T11:46:19;98932.34;;;17.01;28.76
37634;BME280;32048;49.902;22.508;2023-04-27T11:48:46;98934.84;;;16.67;29.12
37634;BME280;32048;49.902;22.508;2023-04-27T11:51:14;98925.31;;;16.52;30.21
37634;BME280;32048;49.902;22.508;2023-04-27T11:53:46;98920.63;;;16.55;31.14
37634;BME280;32048;49.902;22.508;2023-04-27T11:56:14;98925.63;;;16.84;31.40
37634;BME280;32048;49.902;22.508;2023-04-27T11:58:41;98925.59;;;17.19;30.83
37634;BME280;32048;49.902;22.508;2023-04-27T12:01:12;98923.47;;;17.24;30.40
37634;BME280;32048;49.902;22.508;2023-04-27T12:03:39;98929.88;;;17.22;29.77
37634;BME280;32048;49.902;22.508;2023-04-27T12:06:06;98926.00;;;17.26;30.33
37634;BME280;32048;49.902;22.508;2023-04-27T12:08:55;98921.72;;;17.12;29.20
37634;BME280;32048;49.902;22.508;2023-04-27T12:11:24;98927.34;;;16.72;30.82
37634;BME280;32048;49.902;22.508;2023-04-27T12:13:54;98929.38;;;16.20;31.91
37634;BME280;32048;49.902;22.508;2023-04-27T12:16:21;98931.91;;;15.85;33.16
37634;BME280;32048;49.902;22.508;2023-04-27T12:18:49;98931.38;;;15.42;34.34
37634;BME280;32048;49.902;22.508;2023-04-27T12:21:16;98933.53;;;14.57;34.52
37634;BME280;32048;49.902;22.508;2023-04-27T12:23:43;98932.47;;;14.03;36.85
37634;BME280;32048;49.902;22.508;2023-04-27T12:26:11;98930.81;;;13.59;37.72
37634;BME280;32048;49.902;22.508;2023-04-27T12:28:40;98937.38;;;13.23;38.51
37634;BME280;32048;49.902;22.508;2023-04-27T12:31:12;98940.09;;;13.07;39.09
37634;BME280;32048;49.902;22.508;2023-04-27T12:33:39;98933.66;;;12.81;39.65
37634;BME280;32048;49.902;22.508;2023-04-27T12:36:06;98938.97;;;12.51;39.17
37634;BME280;32048;49.902;22.508;2023-04-27T12:38:33;98936.81;;;12.58;40.18
37634;BME280;32048;49.902;22.508;2023-04-27T12:41:01;98932.06;;;12.79;40.25
37634;BME280;32048;49.902;22.508;2023-04-27T12:43:28;98931.28;;;13.07;39.19
37634;BME280;32048;49.902;22.508;2023-04-27T12:45:55;98927.38;;;13.43;39.42
37634;BME280;32048;49.902;22.508;2023-04-27T12:48:22;98926.91;;;13.93;38.43
37634;BME280;32048;49.902;22.508;2023-04-27T12:50:49;98924.22;;;14.49;36.09
37634;BME280;32048;49.902;22.508;2023-04-27T12:53:16;98930.44;;;14.90;35.87
37634;BME280;32048;49.902;22.508;2023-04-27T12:55:43;98920.91;;;15.13;34.78
37634;BME280;32048;49.902;22.508;2023-04-27T12:58:10;98925.41;;;15.25;34.08
37634;BME280;32048;49.902;22.508;2023-04-27T13:00:37;98912.19;;;15.24;34.22
37634;BME280;32048;49.902;22.508;2023-04-27T13:03:05;98918.91;;;15.29;33.56
37634;BME280;32048;49.902;22.508;2023-04-27T13:05:32;98922.63;;;15.27;35.70
37634;BME280;32048;49.902;22.508;2023-04-27T13:07:59;98920.69;;;15.29;33.94
37634;BME280;32048;49.902;22.508;2023-04-27T13:10:27;98929.13;;;15.23;33.37
37634;BME280;32048;49.902;22.508;2023-04-27T13:12:55;98924.09;;;15.05;34.99
37634;BME280;32048;49.902;22.508;2023-04-27T13:15:22;98936.28;;;14.95;34.69
37634;BME280;32048;49.902;22.508;2023-04-27T13:17:49;98933.28;;;14.74;34.06